sensor_id;sensor_type;location;lat;lon;timestamp;P1;durP1;ratioP1;P2;durP2;ratioP2
36829;SDS011;22767;47.328;9.640;2022-07-22T00:01:52;10.13;;;9.07;;
36829;SDS011;22767;47.328;9.640;2022-07-22T00:04:38;10.23;;;9.10;;
36829;SDS011;22767;47.328;9.640;2022-07-22T00:07:25;10.27;;;9.27;;
36829;SDS011;22767;47.328;9.640;2022-07-22T00:10:11;10.70;;;9.63;;
36829;SDS011;22767;47.328;9.640;2022-07-22T00:12:58;11.45;;;10.38;;
36829;SDS011;22767;47.328;9.640;2022-07-22T00:15:44;11.27;;;10.18;;
36829;SDS011;22767;47.328;9.640;2022-07-22T00:18:31;11.35;;;10.30;;
36829;SDS011;22767;47.328;9.640;2022-07-22T00:21:17;10.90;;;9.90;;
36829;SDS011;22767;47.328;9.640;2022-07-22T00:24:04;11.48;;;10.38;;
36829;SDS011;22767;47.328;9.640;2022-07-22T00:26:50;10.95;;;9.88;;
36829;SDS011;22767;47.328;9.640;2022-07-22T00:29:37;10.52;;;9.57;;
36829;SDS011;22767;47.328;9.640;2022-07-22T00:32:24;11.13;;;9.95;;
36829;SDS011;22767;47.328;9.640;2022-07-22T00:35:11;10.77;;;9.77;;
36829;SDS011;22767;47.328;9.640;2022-07-22T00:37:57;11.23;;;10.02;;
36829;SDS011;22767;47.328;9.640;2022-07-22T00:40:44;10.55;;;9.52;;
36829;SDS011;22767;47.328;9.640;2022-07-22T00:43:49;11.50;;;10.32;;
36829;SDS011;22767;47.328;9.640;2022-07-22T00:46:36;10.07;;;9.02;;
36829;SDS011;22767;47.328;9.640;2022-07-22T00:49:23;10.55;;;9.63;;
36829;SDS011;22767;47.328;9.640;2022-07-22T00:52:10;10.38;;;9.25;;
36829;SDS011;22767;47.328;9.640;2022-07-22T00:54:58;10.60;;;9.60;;
36829;SDS011;22767;47.328;9.640;2022-07-22T00:57:45;10.35;;;9.40;;
36829;SDS011;22767;47.328;9.640;2022-07-22T01:00:31;10.68;;;9.57;;
36829;SDS011;22767;47.328;9.640;2022-07-22T01:03:18;11.13;;;9.48;;
36829;SDS011;22767;47.328;9.640;2022-07-22T01:06:05;10.48;;;9.48;;
36829;SDS011;22767;47.328;9.640;2022-07-22T01:08:51;11.20;;;9.63;;
36829;SDS011;22767;47.328;9.640;2022-07-22T01:11:38;10.55;;;9.25;;
36829;SDS011;22767;47.328;9.640;2022-07-22T01:14:24;9.55;;;8.55;;
36829;SDS011;22767;47.328;9.640;2022-07-22T01:17:11;10.02;;;9.02;;
36829;SDS011;22767;47.328;9.640;2022-07-22T01:19:59;9.63;;;8.70;;
36829;SDS011;22767;47.328;9.640;2022-07-22T01:22:46;9.80;;;8.90;;
36829;SDS011;22767;47.328;9.640;2022-07-22T01:25:33;9.07;;;8.27;;
36829;SDS011;22767;47.328;9.640;2022-07-22T01:28:19;9.77;;;8.88;;
36829;SDS011;22767;47.328;9.640;2022-07-22T01:31:06;9.32;;;8.43;;
36829;SDS011;22767;47.328;9.640;2022-07-22T01:33:53;10.07;;;9.07;;
36829;SDS011;22767;47.328;9.640;2022-07-22T01:36:40;10.75;;;9.70;;
36829;SDS011;22767;47.328;9.640;2022-07-22T01:39:26;10.43;;;9.25;;
36829;SDS011;22767;47.328;9.640;2022-07-22T01:42:13;10.38;;;9.40;;
36829;SDS011;22767;47.328;9.640;2022-07-22T01:44:59;9.40;;;8.55;;
36829;SDS011;22767;47.328;9.640;2022-07-22T01:47:46;11.25;;;9.48;;
36829;SDS011;22767;47.328;9.640;2022-07-22T01:50:32;9.80;;;9.00;;
36829;SDS011;22767;47.328;9.640;2022-07-22T01:53:19;11.32;;;9.07;;
36829;SDS011;22767;47.328;9.640;2022-07-22T01:56:06;10.80;;;9.70;;
36829;SDS011;22767;47.328;9.640;2022-07-22T01:58:52;10.48;;;9.30;;
36829;SDS011;22767;47.328;9.640;2022-07-22T02:01:39;11.13;;;9.43;;
36829;SDS011;22767;47.328;9.640;2022-07-22T02:04:25;10.27;;;9.38;;
36829;SDS011;22767;47.328;9.640;2022-07-22T02:07:12;10.73;;;9.68;;
36829;SDS011;22767;47.328;9.640;2022-07-22T02:09:58;10.60;;;9.65;;
36829;SDS011;22767;47.328;9.640;2022-07-22T02:12:45;10.20;;;9.30;;
36829;SDS011;22767;47.328;9.640;2022-07-22T02:15:32;10.60;;;9.45;;
36829;SDS011;22767;47.328;9.640;2022-07-22T02:18:18;10.02;;;9.13;;
36829;SDS011;22767;47.328;9.640;2022-07-22T02:21:05;10.65;;;9.55;;
36829;SDS011;22767;47.328;9.640;2022-07-22T02:23:51;10.02;;;9.07;;
36829;SDS011;22767;47.328;9.640;2022-07-22T02:26:38;9.77;;;8.88;;
36829;SDS011;22767;47.328;9.640;2022-07-22T02:29:25;9.85;;;8.88;;
36829;SDS011;22767;47.328;9.640;2022-07-22T02:32:11;10.05;;;8.82;;
36829;SDS011;22767;47.328;9.640;2022-07-22T02:34:58;9.77;;;8.88;;
36829;SDS011;22767;47.328;9.640;2022-07-22T02:37:44;9.60;;;8.65;;
36829;SDS011;22767;47.328;9.640;2022-07-22T02:40:30;9.05;;;8.18;;
36829;SDS011;22767;47.328;9.640;2022-07-22T02:43:17;10.77;;;8.73;;
36829;SDS011;22767;47.328;9.640;2022-07-22T02:46:03;9.85;;;8.85;;
36829;SDS011;22767;47.328;9.640;2022-07-22T02:48:50;10.95;;;9.95;;
36829;SDS011;22767;47.328;9.640;2022-07-22T02:51:37;11.38;;;9.18;;
36829;SDS011;22767;47.328;9.640;2022-07-22T02:54:23;10.38;;;9.38;;
36829;SDS011;22767;47.328;9.640;2022-07-22T02:57:09;10.07;;;9.18;;
36829;SDS011;22767;47.328;9.640;2022-07-22T02:59:56;10.40;;;9.32;;
36829;SDS011;22767;47.328;9.640;2022-07-22T03:02:42;12.07;;;9.75;;
36829;SDS011;22767;47.328;9.640;2022-07-22T03:05:29;10.15;;;9.23;;
36829;SDS011;22767;47.328;9.640;2022-07-22T03:08:16;10.43;;;9.35;;
36829;SDS011;22767;47.328;9.640;2022-07-22T03:11:02;10.25;;;9.25;;
36829;SDS011;22767;47.328;9.640;2022-07-22T03:13:49;9.20;;;8.18;;
36829;SDS011;22767;47.328;9.640;2022-07-22T03:16:35;9.63;;;8.73;;
36829;SDS011;22767;47.328;9.640;2022-07-22T03:19:22;9.63;;;8.73;;
36829;SDS011;22767;47.328;9.640;2022-07-22T03:22:08;9.65;;;8.75;;
36829;SDS011;22767;47.328;9.640;2022-07-22T03:24:55;13.10;;;9.32;;
36829;SDS011;22767;47.328;9.640;2022-07-22T03:27:41;10.88;;;9.85;;
36829;SDS011;22767;47.328;9.640;2022-07-22T03:30:28;10.48;;;9.60;;
36829;SDS011;22767;47.328;9.640;2022-07-22T03:33:14;11.15;;;9.52;;
36829;SDS011;22767;47.328;9.640;2022-07-22T03:36:01;11.80;;;10.70;;
36829;SDS011;22767;47.328;9.640;2022-07-22T03:38:47;10.60;;;9.60;;
36829;SDS011;22767;47.328;9.640;2022-07-22T03:41:34;11.20;;;9.85;;
36829;SDS011;22767;47.328;9.640;2022-07-22T03:44:20;10.50;;;9.50;;
36829;SDS011;22767;47.328;9.640;2022-07-22T03:47:06;10.93;;;9.88;;
36829;SDS011;22767;47.328;9.640;2022-07-22T03:49:53;10.75;;;9.43;;
36829;SDS011;22767;47.328;9.640;2022-07-22T03:52:39;11.93;;;9.85;;
36829;SDS011;22767;47.328;9.640;2022-07-22T03:55:26;12.75;;;10.55;;
36829;SDS011;22767;47.328;9.640;2022-07-22T03:58:12;10.48;;;9.45;;
36829;SDS011;22767;47.328;9.640;2022-07-22T04:00:59;10.45;;;9.45;;
36829;SDS011;22767;47.328;9.640;2022-07-22T04:03:45;11.15;;;9.38;;
36829;SDS011;22767;47.328;9.640;2022-07-22T04:06:32;10.32;;;9.27;;
36829;SDS011;22767;47.328;9.640;2022-07-22T04:09:18;11.75;;;10.00;;
36829;SDS011;22767;47.328;9.640;2022-07-22T04:12:05;11.05;;;10.05;;
36829;SDS011;22767;47.328;9.640;2022-07-22T04:14:52;11.90;;;9.63;;
36829;SDS011;22767;47.328;9.640;2022-07-22T04:17:38;11.20;;;10.18;;
36829;SDS011;22767;47.328;9.640;2022-07-22T04:20:25;10.32;;;9.38;;
36829;SDS011;22767;47.328;9.640;2022-07-22T04:23:12;11.07;;;9.98;;
36829;SDS011;22767;47.328;9.640;2022-07-22T04:25:58;12.32;;;9.95;;
36829;SDS011;22767;47.328;9.640;2022-07-22T04:28:45;10.07;;;9.25;;
36829;SDS011;22767;47.328;9.640;2022-07-22T04:31:31;10.05;;;8.85;;
36829;SDS011;22767;47.328;9.640;2022-07-22T04:34:18;11.25;;;10.05;;
36829;SDS011;22767;47.328;9.640;2022-07-22T04:37:04;12.10;;;10.85;;
36829;SDS011;22767;47.328;9.640;2022-07-22T04:39:51;11.50;;;10.40;;
36829;SDS011;22767;47.328;9.640;2022-07-22T04:42:37;11.98;;;10.77;;
36829;SDS011;22767;47.328;9.640;2022-07-22T04:45:24;11.10;;;10.10;;
36829;SDS011;22767;47.328;9.640;2022-07-22T04:48:10;11.50;;;10.43;;
36829;SDS011;22767;47.328;9.640;2022-07-22T04:51:00;10.77;;;9.77;;
36829;SDS011;22767;47.328;9.640;2022-07-22T04:53:46;11.00;;;9.90;;
36829;SDS011;22767;47.328;9.640;2022-07-22T04:56:33;11.73;;;10.48;;
36829;SDS011;22767;47.328;9.640;2022-07-22T04:59:19;10.95;;;9.82;;
36829;SDS011;22767;47.328;9.640;2022-07-22T05:02:06;11.32;;;10.10;;
36829;SDS011;22767;47.328;9.640;2022-07-22T05:04:52;11.10;;;10.05;;
36829;SDS011;22767;47.328;9.640;2022-07-22T05:07:39;13.27;;;11.05;;
36829;SDS011;22767;47.328;9.640;2022-07-22T05:10:26;12.88;;;11.57;;
36829;SDS011;22767;47.328;9.640;2022-07-22T05:13:13;12.82;;;11.55;;
36829;SDS011;22767;47.328;9.640;2022-07-22T05:16:03;13.48;;;12.05;;
36829;SDS011;22767;47.328;9.640;2022-07-22T05:18:49;12.65;;;11.32;;
36829;SDS011;22767;47.328;9.640;2022-07-22T05:21:36;12.07;;;11.00;;
36829;SDS011;22767;47.328;9.640;2022-07-22T05:24:22;13.05;;;11.75;;
36829;SDS011;22767;47.328;9.640;2022-07-22T05:27:09;12.15;;;10.90;;
36829;SDS011;22767;47.328;9.640;2022-07-22T05:29:56;12.52;;;11.25;;
36829;SDS011;22767;47.328;9.640;2022-07-22T05:32:42;11.80;;;10.70;;
36829;SDS011;22767;47.328;9.640;2022-07-22T05:35:29;13.02;;;11.32;;
36829;SDS011;22767;47.328;9.640;2022-07-22T05:38:15;12.18;;;11.00;;
36829;SDS011;22767;47.328;9.640;2022-07-22T05:41:02;12.73;;;11.35;;
36829;SDS011;22767;47.328;9.640;2022-07-22T05:43:48;12.30;;;11.23;;
36829;SDS011;22767;47.328;9.640;2022-07-22T05:46:35;12.35;;;11.13;;
36829;SDS011;22767;47.328;9.640;2022-07-22T05:49:21;11.98;;;10.77;;
36829;SDS011;22767;47.328;9.640;2022-07-22T05:52:10;13.65;;;10.95;;
36829;SDS011;22767;47.328;9.640;2022-07-22T05:54:59;11.82;;;10.45;;
36829;SDS011;22767;47.328;9.640;2022-07-22T05:57:45;11.52;;;10.48;;
36829;SDS011;22767;47.328;9.640;2022-07-22T06:00:32;12.50;;;10.95;;
36829;SDS011;22767;47.328;9.640;2022-07-22T06:03:18;11.90;;;10.05;;
36829;SDS011;22767;47.328;9.640;2022-07-22T06:06:05;14.02;;;11.32;;
36829;SDS011;22767;47.328;9.640;2022-07-22T06:08:53;13.10;;;11.50;;
36829;SDS011;22767;47.328;9.640;2022-07-22T06:11:40;12.43;;;10.68;;
36829;SDS011;22767;47.328;9.640;2022-07-22T06:14:26;12.90;;;11.35;;
36829;SDS011;22767;47.328;9.640;2022-07-22T06:17:13;15.95;;;11.50;;
36829;SDS011;22767;47.328;9.640;2022-07-22T06:19:59;15.00;;;11.57;;
36829;SDS011;22767;47.328;9.640;2022-07-22T06:22:46;13.68;;;11.73;;
36829;SDS011;22767;47.328;9.640;2022-07-22T06:25:32;13.48;;;10.55;;
36829;SDS011;22767;47.328;9.640;2022-07-22T06:28:19;12.65;;;11.35;;
36829;SDS011;22767;47.328;9.640;2022-07-22T06:31:06;12.27;;;11.07;;
36829;SDS011;22767;47.328;9.640;2022-07-22T06:33:52;12.63;;;11.40;;
36829;SDS011;22767;47.328;9.640;2022-07-22T06:36:39;14.63;;;12.48;;
36829;SDS011;22767;47.328;9.640;2022-07-22T06:39:25;14.68;;;11.10;;
36829;SDS011;22767;47.328;9.640;2022-07-22T06:42:12;14.90;;;11.75;;
36829;SDS011;22767;47.328;9.640;2022-07-22T06:44:58;13.85;;;11.48;;
36829;SDS011;22767;47.328;9.640;2022-07-22T06:47:45;11.43;;;10.18;;
36829;SDS011;22767;47.328;9.640;2022-07-22T06:50:31;12.80;;;10.23;;
36829;SDS011;22767;47.328;9.640;2022-07-22T06:53:18;11.43;;;10.23;;
36829;SDS011;22767;47.328;9.640;2022-07-22T06:56:04;14.60;;;12.38;;
36829;SDS011;22767;47.328;9.640;2022-07-22T06:58:51;11.80;;;10.60;;
36829;SDS011;22767;47.328;9.640;2022-07-22T07:01:37;15.23;;;12.80;;
36829;SDS011;22767;47.328;9.640;2022-07-22T07:04:24;13.98;;;11.13;;
36829;SDS011;22767;47.328;9.640;2022-07-22T07:07:10;12.45;;;11.25;;
36829;SDS011;22767;47.328;9.640;2022-07-22T07:09:56;14.98;;;11.57;;
36829;SDS011;22767;47.328;9.640;2022-07-22T07:12:43;13.70;;;10.88;;
36829;SDS011;22767;47.328;9.640;2022-07-22T07:15:29;15.90;;;11.65;;
36829;SDS011;22767;47.328;9.640;2022-07-22T07:18:16;11.75;;;10.63;;
36829;SDS011;22767;47.328;9.640;2022-07-22T07:21:03;12.18;;;11.02;;
36829;SDS011;22767;47.328;9.640;2022-07-22T07:23:49;11.63;;;10.60;;
36829;SDS011;22767;47.328;9.640;2022-07-22T07:26:37;12.95;;;11.68;;
36829;SDS011;22767;47.328;9.640;2022-07-22T07:29:23;13.75;;;10.95;;
36829;SDS011;22767;47.328;9.640;2022-07-22T07:32:10;12.10;;;9.90;;
36829;SDS011;22767;47.328;9.640;2022-07-22T07:34:56;11.25;;;10.00;;
36829;SDS011;22767;47.328;9.640;2022-07-22T07:37:43;12.50;;;11.30;;
36829;SDS011;22767;47.328;9.640;2022-07-22T07:41:01;11.10;;;10.10;;
36829;SDS011;22767;47.328;9.640;2022-07-22T07:44:20;13.00;;;10.45;;
36829;SDS011;22767;47.328;9.640;2022-07-22T07:47:13;11.60;;;10.57;;
36829;SDS011;22767;47.328;9.640;2022-07-22T07:50:03;11.55;;;10.38;;
36829;SDS011;22767;47.328;9.640;2022-07-22T07:52:50;11.70;;;10.60;;
36829;SDS011;22767;47.328;9.640;2022-07-22T07:55:36;11.88;;;10.60;;
36829;SDS011;22767;47.328;9.640;2022-07-22T07:58:24;12.95;;;10.60;;
36829;SDS011;22767;47.328;9.640;2022-07-22T08:01:11;13.48;;;11.02;;
36829;SDS011;22767;47.328;9.640;2022-07-22T08:03:57;11.63;;;10.43;;
36829;SDS011;22767;47.328;9.640;2022-07-22T08:06:44;11.90;;;10.30;;
36829;SDS011;22767;47.328;9.640;2022-07-22T08:09:30;10.88;;;9.77;;
36829;SDS011;22767;47.328;9.640;2022-07-22T08:12:17;12.38;;;10.57;;
36829;SDS011;22767;47.328;9.640;2022-07-22T08:15:03;10.57;;;9.43;;
36829;SDS011;22767;47.328;9.640;2022-07-22T08:17:50;10.60;;;9.60;;
36829;SDS011;22767;47.328;9.640;2022-07-22T08:20:36;11.45;;;10.32;;
36829;SDS011;22767;47.328;9.640;2022-07-22T08:23:23;10.75;;;9.75;;
36829;SDS011;22767;47.328;9.640;2022-07-22T08:26:09;11.32;;;10.30;;
36829;SDS011;22767;47.328;9.640;2022-07-22T08:28:59;11.02;;;10.02;;
36829;SDS011;22767;47.328;9.640;2022-07-22T08:31:45;12.18;;;11.07;;
36829;SDS011;22767;47.328;9.640;2022-07-22T08:34:38;11.63;;;9.98;;
36829;SDS011;22767;47.328;9.640;2022-07-22T08:37:25;12.25;;;10.80;;
36829;SDS011;22767;47.328;9.640;2022-07-22T08:40:12;13.50;;;10.95;;
36829;SDS011;22767;47.328;9.640;2022-07-22T08:43:05;10.63;;;9.63;;
36829;SDS011;22767;47.328;9.640;2022-07-22T08:45:52;13.23;;;11.93;;
36829;SDS011;22767;47.328;9.640;2022-07-22T08:48:39;11.50;;;10.40;;
36829;SDS011;22767;47.328;9.640;2022-07-22T08:51:25;12.65;;;11.38;;
36829;SDS011;22767;47.328;9.640;2022-07-22T08:54:11;12.52;;;11.00;;
36829;SDS011;22767;47.328;9.640;2022-07-22T08:56:58;11.43;;;10.40;;
36829;SDS011;22767;47.328;9.640;2022-07-22T08:59:48;12.75;;;10.65;;
36829;SDS011;22767;47.328;9.640;2022-07-22T09:02:36;11.98;;;10.88;;
36829;SDS011;22767;47.328;9.640;2022-07-22T09:05:22;12.80;;;11.60;;
36829;SDS011;22767;47.328;9.640;2022-07-22T09:08:09;12.40;;;11.20;;
36829;SDS011;22767;47.328;9.640;2022-07-22T09:10:55;11.93;;;10.60;;
36829;SDS011;22767;47.328;9.640;2022-07-22T09:13:42;11.90;;;10.68;;
36829;SDS011;22767;47.328;9.640;2022-07-22T09:16:45;12.20;;;10.90;;
36829;SDS011;22767;47.328;9.640;2022-07-22T09:19:32;10.85;;;9.85;;
36829;SDS011;22767;47.328;9.640;2022-07-22T09:22:33;10.07;;;9.07;;
36829;SDS011;22767;47.328;9.640;2022-07-22T09:25:32;10.18;;;9.20;;
36829;SDS011;22767;47.328;9.640;2022-07-22T09:28:20;9.95;;;8.88;;
36829;SDS011;22767;47.328;9.640;2022-07-22T09:31:08;10.00;;;9.18;;
36829;SDS011;22767;47.328;9.640;2022-07-22T09:34:08;9.60;;;8.60;;
36829;SDS011;22767;47.328;9.640;2022-07-22T09:36:56;12.27;;;10.43;;
36829;SDS011;22767;47.328;9.640;2022-07-22T09:39:42;11.73;;;8.80;;
36829;SDS011;22767;47.328;9.640;2022-07-22T09:42:29;9.85;;;8.95;;
36829;SDS011;22767;47.328;9.640;2022-07-22T09:45:30;10.27;;;9.15;;
36829;SDS011;22767;47.328;9.640;2022-07-22T09:48:17;9.85;;;8.70;;
36829;SDS011;22767;47.328;9.640;2022-07-22T09:51:04;9.40;;;8.50;;
36829;SDS011;22767;47.328;9.640;2022-07-22T09:53:50;10.10;;;9.10;;
36829;SDS011;22767;47.328;9.640;2022-07-22T09:56:37;9.50;;;8.60;;
36829;SDS011;22767;47.328;9.640;2022-07-22T09:59:24;8.57;;;7.78;;
36829;SDS011;22767;47.328;9.640;2022-07-22T10:02:10;9.15;;;8.25;;
36829;SDS011;22767;47.328;9.640;2022-07-22T10:04:57;10.38;;;9.48;;
36829;SDS011;22767;47.328;9.640;2022-07-22T10:07:45;9.57;;;8.68;;
36829;SDS011;22767;47.328;9.640;2022-07-22T10:10:32;10.25;;;9.25;;
36829;SDS011;22767;47.328;9.640;2022-07-22T10:13:19;10.60;;;9.25;;
36829;SDS011;22767;47.328;9.640;2022-07-22T10:16:05;13.63;;;10.18;;
36829;SDS011;22767;47.328;9.640;2022-07-22T10:18:52;10.25;;;9.35;;
36829;SDS011;22767;47.328;9.640;2022-07-22T10:21:39;10.07;;;9.10;;
36829;SDS011;22767;47.328;9.640;2022-07-22T10:24:26;9.70;;;8.80;;
36829;SDS011;22767;47.328;9.640;2022-07-22T10:27:13;10.38;;;9.38;;
36829;SDS011;22767;47.328;9.640;2022-07-22T10:29:59;9.88;;;8.70;;
36829;SDS011;22767;47.328;9.640;2022-07-22T10:32:49;10.30;;;9.30;;
36829;SDS011;22767;47.328;9.640;2022-07-22T10:35:54;9.57;;;8.68;;
36829;SDS011;22767;47.328;9.640;2022-07-22T10:39:01;11.30;;;10.25;;
36829;SDS011;22767;47.328;9.640;2022-07-22T10:41:47;11.55;;;10.10;;
36829;SDS011;22767;47.328;9.640;2022-07-22T10:44:46;11.10;;;10.00;;
36829;SDS011;22767;47.328;9.640;2022-07-22T10:47:52;9.80;;;8.80;;
36829;SDS011;22767;47.328;9.640;2022-07-22T10:50:40;12.32;;;9.73;;
36829;SDS011;22767;47.328;9.640;2022-07-22T10:56:33;10.75;;;9.23;;
36829;SDS011;22767;47.328;9.640;2022-07-22T10:59:20;13.25;;;9.82;;
36829;SDS011;22767;47.328;9.640;2022-07-22T11:02:08;10.25;;;9.43;;
36829;SDS011;22767;47.328;9.640;2022-07-22T11:04:57;10.00;;;9.10;;
36829;SDS011;22767;47.328;9.640;2022-07-22T11:07:44;10.02;;;9.13;;
36829;SDS011;22767;47.328;9.640;2022-07-22T11:10:31;10.45;;;9.55;;
36829;SDS011;22767;47.328;9.640;2022-07-22T11:13:33;11.48;;;10.27;;
36829;SDS011;22767;47.328;9.640;2022-07-22T11:16:21;10.48;;;9.50;;
36829;SDS011;22767;47.328;9.640;2022-07-22T11:19:08;11.02;;;9.20;;
36829;SDS011;22767;47.328;9.640;2022-07-22T11:24:03;10.57;;;9.18;;
36829;SDS011;22767;47.328;9.640;2022-07-22T11:26:51;10.60;;;9.43;;
36829;SDS011;22767;47.328;9.640;2022-07-22T11:29:38;11.82;;;9.18;;
36829;SDS011;22767;47.328;9.640;2022-07-22T11:32:27;13.48;;;9.70;;
36829;SDS011;22767;47.328;9.640;2022-07-22T11:35:16;10.32;;;8.82;;
36829;SDS011;22767;47.328;9.640;2022-07-22T11:38:03;10.35;;;8.57;;
36829;SDS011;22767;47.328;9.640;2022-07-22T11:40:50;14.93;;;8.90;;
36829;SDS011;22767;47.328;9.640;2022-07-22T11:43:37;12.50;;;9.13;;
36829;SDS011;22767;47.328;9.640;2022-07-22T11:46:24;11.73;;;9.50;;
36829;SDS011;22767;47.328;9.640;2022-07-22T11:49:13;17.55;;;9.60;;
36829;SDS011;22767;47.328;9.640;2022-07-22T11:52:00;11.60;;;9.52;;
36829;SDS011;22767;47.328;9.640;2022-07-22T11:54:46;11.43;;;9.35;;
36829;SDS011;22767;47.328;9.640;2022-07-22T11:57:33;10.50;;;9.35;;
36829;SDS011;22767;47.328;9.640;2022-07-22T12:00:32;13.68;;;9.70;;
36829;SDS011;22767;47.328;9.640;2022-07-22T12:03:18;14.48;;;8.73;;
36829;SDS011;22767;47.328;9.640;2022-07-22T12:06:06;9.70;;;8.80;;
36829;SDS011;22767;47.328;9.640;2022-07-22T12:08:53;10.63;;;8.45;;
36829;SDS011;22767;47.328;9.640;2022-07-22T12:11:43;12.02;;;8.13;;
36829;SDS011;22767;47.328;9.640;2022-07-22T12:14:31;11.40;;;9.30;;
36829;SDS011;22767;47.328;9.640;2022-07-22T12:17:18;14.38;;;8.77;;
36829;SDS011;22767;47.328;9.640;2022-07-22T12:20:13;14.73;;;8.60;;
36829;SDS011;22767;47.328;9.640;2022-07-22T12:22:59;11.68;;;9.10;;
36829;SDS011;22767;47.328;9.640;2022-07-22T12:25:55;13.55;;;8.75;;
36829;SDS011;22767;47.328;9.640;2022-07-22T12:28:42;12.73;;;8.85;;
36829;SDS011;22767;47.328;9.640;2022-07-22T12:31:28;10.57;;;8.65;;
36829;SDS011;22767;47.328;9.640;2022-07-22T12:34:15;9.55;;;7.13;;
36829;SDS011;22767;47.328;9.640;2022-07-22T12:37:23;14.48;;;8.45;;
36829;SDS011;22767;47.328;9.640;2022-07-22T12:40:18;14.25;;;7.88;;
36829;SDS011;22767;47.328;9.640;2022-07-22T12:43:06;15.00;;;7.97;;
36829;SDS011;22767;47.328;9.640;2022-07-22T12:45:53;9.23;;;8.13;;
36829;SDS011;22767;47.328;9.640;2022-07-22T12:48:48;10.02;;;7.68;;
36829;SDS011;22767;47.328;9.640;2022-07-22T12:51:34;8.38;;;7.40;;
36829;SDS011;22767;47.328;9.640;2022-07-22T12:54:21;9.40;;;7.40;;
36829;SDS011;22767;47.328;9.640;2022-07-22T12:57:08;8.70;;;7.90;;
36829;SDS011;22767;47.328;9.640;2022-07-22T12:59:55;8.90;;;6.95;;
36829;SDS011;22767;47.328;9.640;2022-07-22T13:02:41;7.60;;;6.90;;
36829;SDS011;22767;47.328;9.640;2022-07-22T13:05:28;8.65;;;7.72;;
36829;SDS011;22767;47.328;9.640;2022-07-22T13:08:15;11.18;;;8.10;;
36829;SDS011;22767;47.328;9.640;2022-07-22T13:11:01;8.90;;;7.80;;
36829;SDS011;22767;47.328;9.640;2022-07-22T13:13:48;16.90;;;7.60;;
36829;SDS011;22767;47.328;9.640;2022-07-22T13:16:34;7.97;;;7.18;;
36829;SDS011;22767;47.328;9.640;2022-07-22T13:19:20;8.35;;;7.57;;
36829;SDS011;22767;47.328;9.640;2022-07-22T13:22:07;10.18;;;7.50;;
36829;SDS011;22767;47.328;9.640;2022-07-22T13:24:53;8.27;;;7.22;;
36829;SDS011;22767;47.328;9.640;2022-07-22T13:27:40;8.63;;;7.18;;
36829;SDS011;22767;47.328;9.640;2022-07-22T13:30:27;10.13;;;7.15;;
36829;SDS011;22767;47.328;9.640;2022-07-22T13:33:13;10.07;;;6.80;;
36829;SDS011;22767;47.328;9.640;2022-07-22T13:36:01;15.40;;;7.78;;
36829;SDS011;22767;47.328;9.640;2022-07-22T13:38:49;13.18;;;7.55;;
36829;SDS011;22767;47.328;9.640;2022-07-22T13:41:36;12.45;;;7.75;;
36829;SDS011;22767;47.328;9.640;2022-07-22T13:44:23;15.50;;;7.47;;
36829;SDS011;22767;47.328;9.640;2022-07-22T13:47:09;13.98;;;7.78;;
36829;SDS011;22767;47.328;9.640;2022-07-22T13:49:55;8.88;;;6.60;;
36829;SDS011;22767;47.328;9.640;2022-07-22T13:52:42;8.15;;;7.20;;
36829;SDS011;22767;47.328;9.640;2022-07-22T13:55:31;7.72;;;7.00;;
36829;SDS011;22767;47.328;9.640;2022-07-22T13:58:18;10.85;;;6.78;;
36829;SDS011;22767;47.328;9.640;2022-07-22T14:01:05;8.93;;;6.40;;
36829;SDS011;22767;47.328;9.640;2022-07-22T14:03:53;7.57;;;6.90;;
36829;SDS011;22767;47.328;9.640;2022-07-22T14:06:39;8.88;;;6.20;;
36829;SDS011;22767;47.328;9.640;2022-07-22T14:09:25;9.55;;;6.53;;
36829;SDS011;22767;47.328;9.640;2022-07-22T14:12:12;13.43;;;6.97;;
36829;SDS011;22767;47.328;9.640;2022-07-22T14:14:58;6.95;;;6.25;;
36829;SDS011;22767;47.328;9.640;2022-07-22T14:17:45;7.63;;;6.13;;
36829;SDS011;22767;47.328;9.640;2022-07-22T14:20:32;6.80;;;6.10;;
36829;SDS011;22767;47.328;9.640;2022-07-22T14:23:19;7.20;;;6.60;;
36829;SDS011;22767;47.328;9.640;2022-07-22T14:26:08;8.10;;;6.43;;
36829;SDS011;22767;47.328;9.640;2022-07-22T14:28:55;9.27;;;6.65;;
36829;SDS011;22767;47.328;9.640;2022-07-22T14:31:41;6.93;;;6.25;;
36829;SDS011;22767;47.328;9.640;2022-07-22T14:34:28;9.13;;;5.88;;
36829;SDS011;22767;47.328;9.640;2022-07-22T14:37:14;6.82;;;6.00;;
36829;SDS011;22767;47.328;9.640;2022-07-22T14:40:00;6.13;;;5.63;;
36829;SDS011;22767;47.328;9.640;2022-07-22T14:42:47;6.13;;;5.53;;
36829;SDS011;22767;47.328;9.640;2022-07-22T14:45:34;6.10;;;5.60;;
36829;SDS011;22767;47.328;9.640;2022-07-22T14:48:21;5.82;;;5.28;;
36829;SDS011;22767;47.328;9.640;2022-07-22T14:51:08;6.85;;;5.38;;
36829;SDS011;22767;47.328;9.640;2022-07-22T14:53:54;5.72;;;5.22;;
36829;SDS011;22767;47.328;9.640;2022-07-22T14:56:40;8.35;;;4.78;;
36829;SDS011;22767;47.328;9.640;2022-07-22T14:59:27;5.00;;;4.50;;
36829;SDS011;22767;47.328;9.640;2022-07-22T15:02:14;5.82;;;5.13;;
36829;SDS011;22767;47.328;9.640;2022-07-22T15:05:00;6.82;;;4.95;;
36829;SDS011;22767;47.328;9.640;2022-07-22T15:07:47;4.57;;;4.18;;
36829;SDS011;22767;47.328;9.640;2022-07-22T15:10:33;5.40;;;4.43;;
36829;SDS011;22767;47.328;9.640;2022-07-22T15:13:20;5.22;;;4.55;;
36829;SDS011;22767;47.328;9.640;2022-07-22T15:16:07;6.40;;;4.60;;
36829;SDS011;22767;47.328;9.640;2022-07-22T15:18:54;4.72;;;4.32;;
36829;SDS011;22767;47.328;9.640;2022-07-22T15:21:41;5.22;;;4.78;;
36829;SDS011;22767;47.328;9.640;2022-07-22T15:24:27;6.57;;;4.78;;
36829;SDS011;22767;47.328;9.640;2022-07-22T15:27:14;5.43;;;4.93;;
36829;SDS011;22767;47.328;9.640;2022-07-22T15:30:01;5.70;;;5.20;;
36829;SDS011;22767;47.328;9.640;2022-07-22T15:32:47;6.10;;;5.10;;
36829;SDS011;22767;47.328;9.640;2022-07-22T15:35:34;5.25;;;4.75;;
36829;SDS011;22767;47.328;9.640;2022-07-22T15:38:20;6.50;;;5.60;;
36829;SDS011;22767;47.328;9.640;2022-07-22T15:41:07;5.13;;;4.68;;
36829;SDS011;22767;47.328;9.640;2022-07-22T15:43:54;5.63;;;5.13;;
36829;SDS011;22767;47.328;9.640;2022-07-22T15:46:41;5.45;;;4.93;;
36829;SDS011;22767;47.328;9.640;2022-07-22T15:49:27;6.45;;;5.22;;
36829;SDS011;22767;47.328;9.640;2022-07-22T15:52:13;5.82;;;5.30;;
36829;SDS011;22767;47.328;9.640;2022-07-22T15:55:00;5.63;;;5.10;;
36829;SDS011;22767;47.328;9.640;2022-07-22T15:57:46;5.57;;;5.18;;
36829;SDS011;22767;47.328;9.640;2022-07-22T16:00:51;5.82;;;4.25;;
36829;SDS011;22767;47.328;9.640;2022-07-22T16:03:37;5.72;;;5.03;;
36829;SDS011;22767;47.328;9.640;2022-07-22T16:06:24;6.30;;;4.40;;
36829;SDS011;22767;47.328;9.640;2022-07-22T16:09:10;5.80;;;4.88;;
36829;SDS011;22767;47.328;9.640;2022-07-22T16:11:57;6.18;;;5.57;;
36829;SDS011;22767;47.328;9.640;2022-07-22T16:14:43;6.20;;;4.60;;
36829;SDS011;22767;47.328;9.640;2022-07-22T16:17:30;5.53;;;4.90;;
36829;SDS011;22767;47.328;9.640;2022-07-22T16:20:16;5.97;;;5.38;;
36829;SDS011;22767;47.328;9.640;2022-07-22T16:23:03;5.82;;;5.25;;
36829;SDS011;22767;47.328;9.640;2022-07-22T16:25:49;5.90;;;5.20;;
36829;SDS011;22767;47.328;9.640;2022-07-22T16:28:36;5.88;;;5.00;;
36829;SDS011;22767;47.328;9.640;2022-07-22T16:31:22;5.30;;;4.85;;
36829;SDS011;22767;47.328;9.640;2022-07-22T16:34:09;5.82;;;5.10;;
36829;SDS011;22767;47.328;9.640;2022-07-22T16:36:56;5.10;;;4.68;;
36829;SDS011;22767;47.328;9.640;2022-07-22T16:39:42;5.60;;;5.00;;